FDX289 EGBB-EGPH
Flight info
| Callsign | FDX289 |
|---|---|
| Flight time | 0h 46m |
| Altitude | 28000 |
| Route | LUVUM DCT TNT N57 POL UN601 RIBEL DCT INPIP |
| Aircraft | B738/M-SDE2E3FGHIRWXY/LB1 |
Departure
| Time | 2026-04-25 17:26 |
|---|---|
| Airport | Birmingham Airport (EGBB) |
Arrival
| Time | 2026-04-25 18:13 |
|---|---|
| Airport | Edinburgh Airport (EGPH) |
| Time | Latitude | Longitude | Altitude | Speed | Heading |
|---|---|---|---|---|---|
| 2026-04-25 17:04 | 52.45084 | -1.74956 | 324 ft | 0 kts | 146° |
| 2026-04-25 17:19 | 52.45055 | -1.74924 | 326 ft | 0 kts | 146° |
| 2026-04-25 17:19 | 52.45053 | -1.74920 | 327 ft | 2 kts | 131° |
| 2026-04-25 17:19 | 52.45043 | -1.74891 | 327 ft | 7 kts | 120° |
| 2026-04-25 17:19 | 52.45085 | -1.74828 | 328 ft | 10 kts | 350° |
| 2026-04-25 17:20 | 52.45137 | -1.74878 | 327 ft | 16 kts | 327° |
| 2026-04-25 17:20 | 52.45156 | -1.75055 | 325 ft | 22 kts | 236° |
| 2026-04-25 17:20 | 52.45148 | -1.75178 | 325 ft | 10 kts | 330° |
| 2026-04-25 17:20 | 52.45229 | -1.75193 | 325 ft | 17 kts | 45° |
| 2026-04-25 17:21 | 52.45293 | -1.75036 | 325 ft | 8 kts | 58° |
| 2026-04-25 17:21 | 52.45302 | -1.75013 | 323 ft | 0 kts | 57° |
| 2026-04-25 17:22 | 52.45307 | -1.75002 | 325 ft | 4 kts | 57° |
| 2026-04-25 17:22 | 52.45324 | -1.74957 | 325 ft | 9 kts | 57° |
| 2026-04-25 17:22 | 52.45401 | -1.74761 | 325 ft | 20 kts | 57° |
| 2026-04-25 17:22 | 52.45470 | -1.74608 | 325 ft | 16 kts | 36° |
| 2026-04-25 17:23 | 52.45518 | -1.74626 | 326 ft | 10 kts | 326° |
| 2026-04-25 17:23 | 52.45599 | -1.74716 | 326 ft | 18 kts | 326° |
| 2026-04-25 17:23 | 52.45682 | -1.74809 | 327 ft | 17 kts | 324° |
| 2026-04-25 17:23 | 52.45777 | -1.74915 | 325 ft | 13 kts | 326° |
| 2026-04-25 17:24 | 52.45875 | -1.75024 | 322 ft | 21 kts | 325° |
| 2026-04-25 17:24 | 52.46020 | -1.75182 | 321 ft | 29 kts | 327° |
| 2026-04-25 17:24 | 52.46100 | -1.75274 | 317 ft | 11 kts | 324° |
| 2026-04-25 17:24 | 52.46196 | -1.75379 | 312 ft | 18 kts | 323° |
| 2026-04-25 17:25 | 52.46190 | -1.75525 | 313 ft | 18 kts | 237° |
| 2026-04-25 17:25 | 52.46116 | -1.75613 | 316 ft | 9 kts | 163° |
| 2026-04-25 17:25 | 52.46100 | -1.75597 | 315 ft | 0 kts | 147° |
| 2026-04-25 17:25 | 52.46094 | -1.75591 | 315 ft | 2 kts | 147° |
| 2026-04-25 17:26 | 52.45945 | -1.75432 | 323 ft | 66 kts | 147° |
| 2026-04-25 17:26 | 52.45334 | -1.74744 | 325 ft | 145 kts | 145° |
| 2026-04-25 17:26 | 52.44341 | -1.73691 | 699 ft | 183 kts | 147° |
| 2026-04-25 17:26 | 52.43186 | -1.72490 | 1403 ft | 212 kts | 148° |
| 2026-04-25 17:27 | 52.41883 | -1.71047 | 2007 ft | 238 kts | 144° |
| 2026-04-25 17:27 | 52.40674 | -1.69242 | 3078 ft | 232 kts | 122° |
| 2026-04-25 17:27 | 52.40296 | -1.66806 | 4012 ft | 220 kts | 83° |
| 2026-04-25 17:27 | 52.40483 | -1.65172 | 4349 ft | 221 kts | 76° |
| 2026-04-25 17:28 | 52.41271 | -1.62100 | 4899 ft | 226 kts | 45° |
| 2026-04-25 17:28 | 52.42654 | -1.60770 | 5068 ft | 241 kts | 16° |
| 2026-04-25 17:28 | 52.44325 | -1.60040 | 5230 ft | 257 kts | 14° |
| 2026-04-25 17:28 | 52.46134 | -1.59520 | 5347 ft | 273 kts | 0° |
| 2026-04-25 17:29 | 52.48074 | -1.59715 | 5518 ft | 285 kts | 355° |
| 2026-04-25 17:29 | 52.50071 | -1.59967 | 5840 ft | 290 kts | 355° |
| 2026-04-25 17:29 | 52.52054 | -1.60563 | 5972 ft | 291 kts | 338° |
| 2026-04-25 17:29 | 52.53897 | -1.61915 | 5995 ft | 290 kts | 334° |
| 2026-04-25 17:30 | 52.55734 | -1.63312 | 5992 ft | 291 kts | 335° |
| 2026-04-25 17:30 | 52.57575 | -1.64681 | 5989 ft | 290 kts | 335° |
| 2026-04-25 17:30 | 52.59422 | -1.66027 | 5988 ft | 291 kts | 335° |
| 2026-04-25 17:30 | 52.61272 | -1.67362 | 5993 ft | 290 kts | 336° |
| 2026-04-25 17:31 | 52.63124 | -1.68696 | 5986 ft | 290 kts | 335° |
| 2026-04-25 17:31 | 52.64971 | -1.70029 | 5990 ft | 290 kts | 335° |
| 2026-04-25 17:31 | 52.66815 | -1.71366 | 5997 ft | 290 kts | 336° |
| 2026-04-25 17:31 | 52.68661 | -1.72707 | 6002 ft | 290 kts | 335° |
| 2026-04-25 17:32 | 52.70516 | -1.74031 | 5992 ft | 291 kts | 339° |
| 2026-04-25 17:32 | 52.72517 | -1.74500 | 6107 ft | 296 kts | 4° |
| 2026-04-25 17:32 | 52.74560 | -1.74082 | 6634 ft | 295 kts | 7° |
| 2026-04-25 17:32 | 52.76590 | -1.73607 | 7084 ft | 296 kts | 7° |
| 2026-04-25 17:33 | 52.78639 | -1.73121 | 7495 ft | 298 kts | 7° |
| 2026-04-25 17:33 | 52.80702 | -1.72637 | 7925 ft | 300 kts | 7° |
| 2026-04-25 17:33 | 52.82776 | -1.72155 | 8368 ft | 302 kts | 7° |
| 2026-04-25 17:33 | 52.84867 | -1.71675 | 8824 ft | 304 kts | 7° |
| 2026-04-25 17:34 | 52.86973 | -1.71195 | 9265 ft | 306 kts | 7° |
| 2026-04-25 17:34 | 52.89091 | -1.70712 | 9714 ft | 309 kts | 7° |
| 2026-04-25 17:34 | 52.91226 | -1.70227 | 10162 ft | 311 kts | 7° |
| 2026-04-25 17:34 | 52.93377 | -1.69738 | 10587 ft | 313 kts | 7° |
| 2026-04-25 17:35 | 52.95539 | -1.69247 | 11020 ft | 315 kts | 7° |
| 2026-04-25 17:35 | 52.97714 | -1.68753 | 11454 ft | 316 kts | 6° |
| 2026-04-25 17:35 | 52.99901 | -1.68255 | 11888 ft | 318 kts | 6° |
| 2026-04-25 17:35 | 53.02099 | -1.67754 | 12363 ft | 319 kts | 6° |
| 2026-04-25 17:36 | 53.04315 | -1.67401 | 12797 ft | 321 kts | 358° |
| 2026-04-25 17:36 | 53.06534 | -1.67799 | 13238 ft | 322 kts | 347° |
| 2026-04-25 17:36 | 53.08672 | -1.68905 | 13694 ft | 323 kts | 338° |
| 2026-04-25 17:36 | 53.10774 | -1.70251 | 14145 ft | 325 kts | 338° |
| 2026-04-25 17:37 | 53.12887 | -1.71605 | 14552 ft | 327 kts | 338° |
| 2026-04-25 17:37 | 53.14994 | -1.72932 | 14956 ft | 329 kts | 338° |
| 2026-04-25 17:37 | 53.17141 | -1.74272 | 15387 ft | 331 kts | 338° |
| 2026-04-25 17:37 | 53.19307 | -1.75619 | 15803 ft | 333 kts | 338° |
| 2026-04-25 17:38 | 53.21484 | -1.76972 | 16215 ft | 335 kts | 338° |
| 2026-04-25 17:38 | 53.22966 | -1.77894 | 16495 ft | 337 kts | 338° |
| 2026-04-25 17:38 | 53.25884 | -1.79710 | 16991 ft | 341 kts | 338° |
| 2026-04-25 17:38 | 53.28147 | -1.81123 | 17052 ft | 353 kts | 338° |
| 2026-04-25 17:39 | 53.30482 | -1.82583 | 17133 ft | 362 kts | 338° |
| 2026-04-25 17:39 | 53.32871 | -1.84077 | 17208 ft | 371 kts | 338° |
| 2026-04-25 17:39 | 53.35319 | -1.85610 | 17286 ft | 379 kts | 338° |
| 2026-04-25 17:39 | 53.37800 | -1.87164 | 17416 ft | 383 kts | 338° |
| 2026-04-25 17:40 | 53.40304 | -1.88734 | 17704 ft | 383 kts | 338° |
| 2026-04-25 17:40 | 53.42800 | -1.90301 | 17991 ft | 384 kts | 338° |
| 2026-04-25 17:40 | 53.45306 | -1.91877 | 18214 ft | 386 kts | 338° |
| 2026-04-25 17:40 | 53.47827 | -1.93465 | 18439 ft | 388 kts | 338° |
| 2026-04-25 17:41 | 53.50359 | -1.95061 | 18657 ft | 389 kts | 338° |
| 2026-04-25 17:41 | 53.52891 | -1.96660 | 18890 ft | 389 kts | 338° |
| 2026-04-25 17:41 | 53.55431 | -1.98264 | 19087 ft | 390 kts | 338° |
| 2026-04-25 17:41 | 53.57979 | -1.99874 | 19268 ft | 392 kts | 338° |
| 2026-04-25 17:42 | 53.60535 | -2.01490 | 19475 ft | 392 kts | 338° |
| 2026-04-25 17:42 | 53.63093 | -2.03110 | 19678 ft | 393 kts | 338° |
| 2026-04-25 17:42 | 53.65658 | -2.04737 | 19844 ft | 395 kts | 338° |
| 2026-04-25 17:42 | 53.68234 | -2.06373 | 20013 ft | 396 kts | 338° |
| 2026-04-25 17:43 | 53.70818 | -2.08016 | 20198 ft | 397 kts | 338° |
| 2026-04-25 17:43 | 53.73405 | -2.09663 | 20343 ft | 399 kts | 338° |
| 2026-04-25 17:43 | 53.75999 | -2.11352 | 20467 ft | 400 kts | 336° |
| 2026-04-25 17:43 | 53.78551 | -2.13109 | 20626 ft | 401 kts | 336° |
| 2026-04-25 17:44 | 53.81128 | -2.14910 | 20813 ft | 401 kts | 336° |
| 2026-04-25 17:44 | 53.83711 | -2.16707 | 20984 ft | 402 kts | 336° |
| 2026-04-25 17:44 | 53.86298 | -2.18498 | 21133 ft | 402 kts | 336° |
| 2026-04-25 17:44 | 53.88898 | -2.20286 | 21273 ft | 403 kts | 336° |
| 2026-04-25 17:45 | 53.91502 | -2.22066 | 21422 ft | 404 kts | 336° |
| 2026-04-25 17:45 | 53.92384 | -2.22670 | 21472 ft | 404 kts | 336° |
| 2026-04-25 17:45 | 53.96727 | -2.25645 | 21708 ft | 405 kts | 336° |
| 2026-04-25 17:45 | 53.99343 | -2.27443 | 21829 ft | 407 kts | 336° |
| 2026-04-25 17:46 | 54.01971 | -2.29252 | 21922 ft | 408 kts | 336° |
| 2026-04-25 17:46 | 54.04604 | -2.31066 | 22066 ft | 408 kts | 336° |
| 2026-04-25 17:46 | 54.07238 | -2.32882 | 22189 ft | 409 kts | 336° |
| 2026-04-25 17:46 | 54.09876 | -2.34704 | 22301 ft | 409 kts | 336° |
| 2026-04-25 17:47 | 54.12516 | -2.36528 | 22414 ft | 410 kts | 336° |
| 2026-04-25 17:47 | 54.15162 | -2.38360 | 22543 ft | 410 kts | 336° |
| 2026-04-25 17:47 | 54.17810 | -2.40196 | 22654 ft | 411 kts | 336° |
| 2026-04-25 17:47 | 54.20465 | -2.42039 | 22744 ft | 412 kts | 336° |
| 2026-04-25 17:48 | 54.25793 | -2.45747 | 22852 ft | 416 kts | 336° |
| 2026-04-25 17:48 | 54.28473 | -2.47616 | 22932 ft | 417 kts | 336° |
| 2026-04-25 17:48 | 54.31160 | -2.49492 | 23040 ft | 417 kts | 336° |
| 2026-04-25 17:49 | 54.33845 | -2.51369 | 23149 ft | 417 kts | 336° |
| 2026-04-25 17:49 | 54.36533 | -2.53251 | 23234 ft | 418 kts | 336° |
| 2026-04-25 17:49 | 54.39224 | -2.55138 | 23315 ft | 418 kts | 336° |
| 2026-04-25 17:49 | 54.41887 | -2.57008 | 23394 ft | 419 kts | 336° |
| 2026-04-25 17:50 | 54.44584 | -2.58904 | 23481 ft | 419 kts | 336° |
| 2026-04-25 17:50 | 54.47281 | -2.60804 | 23560 ft | 420 kts | 336° |
| 2026-04-25 17:50 | 54.49989 | -2.62713 | 23575 ft | 422 kts | 336° |
| 2026-04-25 17:50 | 54.52709 | -2.64635 | 23622 ft | 423 kts | 336° |
| 2026-04-25 17:51 | 54.55435 | -2.66563 | 23696 ft | 423 kts | 336° |
| 2026-04-25 17:51 | 54.58158 | -2.68492 | 23790 ft | 423 kts | 336° |
| 2026-04-25 17:51 | 54.60873 | -2.70416 | 23989 ft | 419 kts | 335° |
| 2026-04-25 17:51 | 54.63564 | -2.72326 | 24130 ft | 418 kts | 335° |
| 2026-04-25 17:52 | 54.66257 | -2.74243 | 24140 ft | 420 kts | 335° |
| 2026-04-25 17:52 | 54.67169 | -2.74893 | 24144 ft | 420 kts | 335° |
| 2026-04-25 17:52 | 54.71673 | -2.78105 | 24201 ft | 422 kts | 335° |
| 2026-04-25 17:52 | 54.74385 | -2.80044 | 24219 ft | 422 kts | 335° |
| 2026-04-25 17:53 | 54.77069 | -2.81963 | 23936 ft | 411 kts | 335° |
| 2026-04-25 17:53 | 54.79688 | -2.83838 | 23057 ft | 405 kts | 335° |
| 2026-04-25 17:53 | 54.82289 | -2.85705 | 21954 ft | 405 kts | 335° |
| 2026-04-25 17:53 | 54.84893 | -2.87577 | 20878 ft | 404 kts | 335° |
| 2026-04-25 17:54 | 54.87479 | -2.89438 | 19972 ft | 400 kts | 335° |
| 2026-04-25 17:54 | 54.90035 | -2.91282 | 19144 ft | 395 kts | 335° |
| 2026-04-25 17:54 | 54.92550 | -2.93103 | 18295 ft | 390 kts | 335° |
| 2026-04-25 17:54 | 54.95041 | -2.94910 | 17364 ft | 385 kts | 336° |
| 2026-04-25 17:55 | 54.97501 | -2.96698 | 16500 ft | 380 kts | 335° |
| 2026-04-25 17:55 | 54.99925 | -2.98461 | 15766 ft | 374 kts | 335° |
| 2026-04-25 17:55 | 55.02321 | -3.00207 | 15236 ft | 373 kts | 335° |
| 2026-04-25 17:55 | 55.04716 | -3.01954 | 14668 ft | 371 kts | 335° |
| 2026-04-25 17:56 | 55.07082 | -3.03682 | 14124 ft | 367 kts | 335° |
| 2026-04-25 17:56 | 55.09430 | -3.05398 | 13520 ft | 364 kts | 335° |
| 2026-04-25 17:56 | 55.11756 | -3.07101 | 12911 ft | 361 kts | 336° |
| 2026-04-25 17:56 | 55.14018 | -3.08758 | 12615 ft | 348 kts | 336° |
| 2026-04-25 17:57 | 55.16182 | -3.10341 | 12685 ft | 332 kts | 336° |
| 2026-04-25 17:57 | 55.18343 | -3.11927 | 12755 ft | 342 kts | 335° |
| 2026-04-25 17:57 | 55.20570 | -3.13564 | 12772 ft | 353 kts | 336° |
| 2026-04-25 17:57 | 55.21338 | -3.14129 | 12774 ft | 356 kts | 335° |
| 2026-04-25 17:58 | 55.25206 | -3.16972 | 12783 ft | 369 kts | 335° |
| 2026-04-25 17:58 | 55.27596 | -3.18732 | 12776 ft | 375 kts | 335° |
| 2026-04-25 17:58 | 55.30021 | -3.20520 | 12775 ft | 380 kts | 336° |
| 2026-04-25 17:58 | 55.32471 | -3.22329 | 12769 ft | 384 kts | 336° |
| 2026-04-25 17:59 | 55.34942 | -3.24156 | 12775 ft | 387 kts | 335° |
| 2026-04-25 17:59 | 55.37430 | -3.25999 | 12779 ft | 389 kts | 335° |
| 2026-04-25 17:59 | 55.39935 | -3.27856 | 12776 ft | 391 kts | 335° |
| 2026-04-25 17:59 | 55.42365 | -3.29658 | 12641 ft | 365 kts | 335° |
| 2026-04-25 18:00 | 55.44612 | -3.31324 | 12434 ft | 336 kts | 335° |
| 2026-04-25 18:00 | 55.46678 | -3.32859 | 12258 ft | 309 kts | 335° |
| 2026-04-25 18:00 | 55.48586 | -3.34279 | 12060 ft | 288 kts | 334° |
| 2026-04-25 18:00 | 55.50336 | -3.35700 | 11908 ft | 266 kts | 325° |
| 2026-04-25 18:01 | 55.51747 | -3.37593 | 11735 ft | 249 kts | 323° |
| 2026-04-25 18:01 | 55.53346 | -3.38684 | 11253 ft | 251 kts | 353° |
| 2026-04-25 18:01 | 55.55066 | -3.38208 | 10735 ft | 255 kts | 22° |
| 2026-04-25 18:01 | 55.56626 | -3.36752 | 10377 ft | 251 kts | 28° |
| 2026-04-25 18:02 | 55.58080 | -3.35239 | 10359 ft | 241 kts | 29° |
| 2026-04-25 18:02 | 55.59543 | -3.33694 | 10395 ft | 245 kts | 29° |
| 2026-04-25 18:02 | 55.61006 | -3.32096 | 10405 ft | 249 kts | 29° |
| 2026-04-25 18:02 | 55.62491 | -3.30463 | 10260 ft | 254 kts | 29° |
| 2026-04-25 18:03 | 55.64004 | -3.28807 | 9880 ft | 257 kts | 29° |
| 2026-04-25 18:03 | 55.65516 | -3.27140 | 9495 ft | 255 kts | 29° |
| 2026-04-25 18:03 | 55.67016 | -3.25482 | 9107 ft | 253 kts | 28° |
| 2026-04-25 18:03 | 55.68633 | -3.24434 | 8701 ft | 246 kts | 1° |
| 2026-04-25 18:04 | 55.70272 | -3.24954 | 8315 ft | 238 kts | 330° |
| 2026-04-25 18:04 | 55.71474 | -3.26867 | 7940 ft | 233 kts | 300° |
| 2026-04-25 18:04 | 55.71915 | -3.29549 | 7589 ft | 232 kts | 274° |
| 2026-04-25 18:04 | 55.71917 | -3.32439 | 7233 ft | 231 kts | 270° |
| 2026-04-25 18:05 | 55.71881 | -3.34321 | 6993 ft | 231 kts | 270° |
| 2026-04-25 18:05 | 55.71799 | -3.38091 | 6487 ft | 230 kts | 269° |
| 2026-04-25 18:05 | 55.71766 | -3.40929 | 6097 ft | 229 kts | 269° |
| 2026-04-25 18:05 | 55.71864 | -3.43740 | 5686 ft | 230 kts | 285° |
| 2026-04-25 18:06 | 55.72658 | -3.46185 | 5327 ft | 230 kts | 307° |
| 2026-04-25 18:06 | 55.73688 | -3.48349 | 4940 ft | 229 kts | 309° |
| 2026-04-25 18:06 | 55.74391 | -3.49783 | 4695 ft | 227 kts | 309° |
| 2026-04-25 18:06 | 55.75771 | -3.52564 | 4191 ft | 227 kts | 309° |
| 2026-04-25 18:07 | 55.76458 | -3.53949 | 4017 ft | 223 kts | 309° |
| 2026-04-25 18:07 | 55.77464 | -3.55970 | 3988 ft | 215 kts | 309° |
| 2026-04-25 18:07 | 55.78436 | -3.57943 | 3961 ft | 208 kts | 309° |
| 2026-04-25 18:07 | 55.79368 | -3.59853 | 3698 ft | 205 kts | 309° |
| 2026-04-25 18:08 | 55.80300 | -3.61764 | 3304 ft | 204 kts | 309° |
| 2026-04-25 18:08 | 55.81212 | -3.63676 | 3009 ft | 199 kts | 309° |
| 2026-04-25 18:08 | 55.82095 | -3.65474 | 2976 ft | 191 kts | 321° |
| 2026-04-25 18:08 | 55.83299 | -3.66303 | 2991 ft | 190 kts | 2° |
| 2026-04-25 18:09 | 55.84548 | -3.65634 | 3015 ft | 190 kts | 30° |
| 2026-04-25 18:09 | 55.85683 | -3.64440 | 2978 ft | 188 kts | 43° |
| 2026-04-25 18:09 | 55.86429 | -3.62607 | 3005 ft | 182 kts | 62° |
| 2026-04-25 18:09 | 55.86850 | -3.61317 | 2984 ft | 183 kts | 59° |
| 2026-04-25 18:10 | 55.87755 | -3.58665 | 2680 ft | 187 kts | 60° |
| 2026-04-25 18:10 | 55.88418 | -3.56702 | 2434 ft | 183 kts | 61° |
| 2026-04-25 18:10 | 55.89064 | -3.54788 | 2189 ft | 178 kts | 61° |
| 2026-04-25 18:10 | 55.89692 | -3.52926 | 1958 ft | 172 kts | 62° |
| 2026-04-25 18:11 | 55.90296 | -3.51138 | 1727 ft | 164 kts | 62° |
| 2026-04-25 18:11 | 55.90871 | -3.49434 | 1517 ft | 161 kts | 61° |
| 2026-04-25 18:11 | 55.91482 | -3.47623 | 1317 ft | 178 kts | 60° |
| 2026-04-25 18:11 | 55.92116 | -3.45754 | 1065 ft | 171 kts | 60° |
| 2026-04-25 18:12 | 55.92716 | -3.43980 | 847 ft | 164 kts | 59° |
| 2026-04-25 18:12 | 55.93296 | -3.42267 | 636 ft | 161 kts | 59° |
| 2026-04-25 18:12 | 55.93887 | -3.40536 | 348 ft | 164 kts | 59° |
| 2026-04-25 18:12 | 55.94476 | -3.38793 | 136 ft | 162 kts | 59° |
| 2026-04-25 18:13 | 55.95040 | -3.37131 | 105 ft | 141 kts | 58° |
| 2026-04-25 18:13 | 55.95310 | -3.36337 | 100 ft | 35 kts | 59° |
| 2026-04-25 18:13 | 55.95443 | -3.35946 | 98 ft | 35 kts | 59° |
| 2026-04-25 18:14 | 55.95497 | -3.35437 | 101 ft | 10 kts | 146° |
| 2026-04-25 18:14 | 55.95436 | -3.35407 | 103 ft | 10 kts | 203° |
| 2026-04-25 18:14 | 55.95397 | -3.35500 | 105 ft | 9 kts | 239° |
| 2026-04-25 18:14 | 55.95370 | -3.35582 | 104 ft | 0 kts | 239° |
| 2026-04-25 18:15 | 55.95369 | -3.35586 | 104 ft | 0 kts | 239° |
| 2026-04-25 18:15 | 55.95365 | -3.35598 | 103 ft | 2 kts | 239° |
| 2026-04-25 18:15 | 55.95352 | -3.35635 | 101 ft | 5 kts | 239° |
| 2026-04-25 18:15 | 55.95332 | -3.35695 | 101 ft | 6 kts | 238° |
| 2026-04-25 18:16 | 55.95309 | -3.35764 | 101 ft | 6 kts | 240° |
| 2026-04-25 18:16 | 55.95286 | -3.35831 | 101 ft | 6 kts | 238° |
| 2026-04-25 18:16 | 55.95234 | -3.35969 | 100 ft | 7 kts | 218° |
| 2026-04-25 18:17 | 55.95188 | -3.35958 | 102 ft | 7 kts | 164° |
| 2026-04-25 18:17 | 55.95144 | -3.35921 | 104 ft | 7 kts | 149° |
| 2026-04-25 18:17 | 55.95116 | -3.35855 | 105 ft | 7 kts | 120° |
| 2026-04-25 18:17 | 55.95091 | -3.35785 | 106 ft | 7 kts | 126° |
| 2026-04-25 18:18 | 55.95065 | -3.35719 | 107 ft | 6 kts | 122° |
| 2026-04-25 18:18 | 55.95042 | -3.35649 | 107 ft | 7 kts | 118° |
| 2026-04-25 18:18 | 55.95020 | -3.35577 | 108 ft | 7 kts | 118° |
| 2026-04-25 18:18 | 55.94997 | -3.35503 | 109 ft | 7 kts | 118° |
| 2026-04-25 18:19 | 55.94968 | -3.35412 | 109 ft | 12 kts | 120° |
| 2026-04-25 18:19 | 55.94911 | -3.35221 | 110 ft | 22 kts | 117° |
| 2026-04-25 18:19 | 55.94836 | -3.34967 | 112 ft | 21 kts | 108° |
| 2026-04-25 18:19 | 55.94910 | -3.34841 | 110 ft | 20 kts | 17° |
| 2026-04-25 18:20 | 55.94971 | -3.34883 | 108 ft | 5 kts | 9° |
| 2026-04-25 18:20 | 55.95010 | -3.34847 | 108 ft | 3 kts | 28° |
| 2026-04-25 18:20 | 55.95021 | -3.34837 | 108 ft | 0 kts | 28° |
| 2026-04-25 18:22 | 55.95021 | -3.34836 | 114 ft | 0 kts | 28° |
| 2026-04-25 18:22 | 55.95021 | -3.34837 | 108 ft | 0 kts | 30° |
| 2026-04-25 18:23 | 55.95021 | -3.34836 | 108 ft | 0 kts | 31° |